Terminal Aerodrome Forecast
Issued by NWS

Home | Current Version | Previous Version | Text Only | Print | Product List | Glossary On
Versions: 1 2 3 4 5 6 7 8 9 10 11 12 13 14 15 16
000
FTUS43 KDTX 260548
TAFPTK
TAF
KPTK 260548Z 2606/2706 15009KT P6SM SCT060 BKN080
      TEMPO 2607/2610 5SM SHRA BKN040 OVC060
     FM261000 24008KT 4SM -SHRA BR BKN012 OVC040
     FM261400 25011G18KT P6SM BKN022 OVC080
     FM261600 26014G24KT P6SM BKN040
     FM262000 26015G26KT P6SM SCT050
     FM270000 24012G19KT P6SM SCT060=

USA.gov is the U.S. government's official web portal to all federal, state and local government web resources and services.